createdAt,value
2019-02-24T00:02:09.418Z,23.50
2019-02-24T00:04:37.661Z,30.77
2019-02-24T00:07:03.922Z,25.10
2019-02-24T00:09:30.083Z,29.10
2019-02-24T00:11:58.786Z,25.33
2019-02-24T00:14:26.338Z,28.67
2019-02-24T00:16:52.760Z,31.20
2019-02-24T00:19:18.976Z,30.53
2019-02-24T00:21:45.123Z,22.37
2019-02-24T00:24:14.171Z,26.90
2019-02-24T00:26:40.456Z,31.27
2019-02-24T00:29:08.567Z,33.00
2019-02-24T00:31:38.509Z,38.17
2019-02-24T00:34:06.678Z,34.10
2019-02-24T00:36:34.649Z,37.30
2019-02-24T00:39:01.099Z,31.57
2019-02-24T00:41:27.359Z,30.43
2019-02-24T00:43:55.458Z,33.10
2019-02-24T00:46:22.107Z,33.63
2019-02-24T00:48:48.354Z,32.07
2019-02-24T00:51:16.642Z,40.07
2019-02-24T00:53:44.296Z,31.60
2019-02-24T00:56:15.558Z,30.50
2019-02-24T00:58:45.095Z,31.63
2019-02-24T01:01:13.450Z,31.77
2019-02-24T01:03:43.473Z,29.40
2019-02-24T01:06:09.818Z,29.73
2019-02-24T01:08:36.244Z,29.53
2019-02-24T01:11:03.791Z,34.60
2019-02-24T01:13:30.029Z,31.70
2019-02-24T01:16:00.041Z,33.07
2019-02-24T01:18:26.408Z,30.43
2019-02-24T01:20:54.654Z,36.93
2019-02-24T01:23:25.339Z,34.83
2019-02-24T01:25:53.590Z,35.17
2019-02-24T01:28:25.318Z,32.43
2019-02-24T01:30:49.131Z,33.00
2019-02-24T01:33:17.169Z,30.53
2019-02-24T01:35:43.606Z,32.45
2019-02-24T01:38:11.150Z,29.70
2019-02-24T01:40:38.430Z,27.20
2019-02-24T01:43:09.773Z,24.67
2019-02-24T01:45:38.412Z,26.93
2019-02-24T01:48:10.953Z,25.88
2019-02-24T01:50:37.065Z,25.30
2019-02-24T01:53:07.568Z,29.10
2019-02-24T01:55:34.782Z,30.90
2019-02-24T01:58:00.985Z,30.68
2019-02-24T02:00:28.482Z,32.15
2019-02-24T02:02:56.373Z,32.75
2019-02-24T02:05:22.983Z,35.30
2019-02-24T02:07:59.996Z,31.62
2019-02-24T02:10:26.045Z,28.23
2019-02-24T02:12:53.294Z,27.52
2019-02-24T02:15:19.577Z,31.15
2019-02-24T02:17:45.897Z,25.77
2019-02-24T02:20:13.623Z,31.75
2019-02-24T02:22:39.896Z,23.52
2019-02-24T02:25:09.949Z,24.87
2019-02-24T02:27:37.427Z,29.67
2019-02-24T02:30:08.007Z,28.32
2019-02-24T02:32:34.124Z,23.42
2019-02-24T02:35:00.326Z,24.25
2019-02-24T02:37:30.387Z,25.57
2019-02-24T02:39:56.466Z,28.30
2019-02-24T02:42:22.860Z,22.27
2019-02-24T02:44:49.123Z,28.77
2019-02-24T02:47:15.228Z,27.55
2019-02-24T02:49:48.416Z,22.62
2019-02-24T02:52:17.289Z,20.77
2019-02-24T02:54:48.083Z,22.58
2019-02-24T02:57:14.156Z,20.62
2019-02-24T02:59:41.255Z,21.93
2019-02-24T03:02:09.182Z,26.65
2019-02-24T03:04:35.472Z,21.62
2019-02-24T03:07:03.645Z,23.35
2019-02-24T03:09:29.832Z,23.25
2019-02-24T03:11:57.889Z,24.07
2019-02-24T03:14:24.236Z,25.02
2019-02-24T03:16:50.365Z,21.50
2019-02-24T03:19:16.724Z,19.67
2019-02-24T03:21:42.852Z,19.12
2019-02-24T03:24:09.067Z,22.30
2019-02-24T03:26:37.081Z,22.50
2019-02-24T03:29:08.187Z,20.92
2019-02-24T03:31:36.284Z,27.55
2019-02-24T03:34:03.000Z,27.32
2019-02-24T03:36:29.027Z,20.65
2019-02-24T03:38:55.285Z,25.60
2019-02-24T03:41:23.699Z,19.95
2019-02-24T03:43:52.430Z,19.80
2019-02-24T03:46:18.909Z,24.07
2019-02-24T03:48:45.145Z,23.50
2019-02-24T03:51:14.219Z,19.32
2019-02-24T03:53:40.528Z,21.07
2019-02-24T03:56:07.119Z,23.07
2019-02-24T03:58:34.313Z,22.87
2019-02-24T04:01:01.644Z,23.60
2019-02-24T04:03:27.896Z,24.90
2019-02-24T04:05:55.293Z,21.15
2019-02-24T04:08:22.254Z,22.55
2019-02-24T04:10:55.001Z,24.82
2019-02-24T04:13:22.125Z,19.25
2019-02-24T04:15:48.739Z,20.68
2019-02-24T04:18:14.833Z,21.80
2019-02-24T04:20:41.293Z,19.95
2019-02-24T04:23:07.727Z,21.23
2019-02-24T04:25:33.931Z,24.63
2019-02-24T04:28:00.927Z,19.52
2019-02-24T04:30:28.295Z,20.77
2019-02-24T04:32:57.484Z,19.70
2019-02-24T04:35:29.187Z,19.67
2019-02-24T04:37:56.549Z,16.12
2019-02-24T04:40:30.104Z,15.43
2019-02-24T04:43:00.507Z,20.40
2019-02-24T04:45:26.855Z,18.17
2019-02-24T04:47:53.199Z,15.10
2019-02-24T04:50:21.025Z,14.20
2019-02-24T04:52:49.541Z,19.35
2019-02-24T04:55:16.166Z,18.17
2019-02-24T04:57:48.069Z,17.32
2019-02-24T05:00:10.543Z,18.60
2019-02-24T05:02:38.795Z,16.60
2019-02-24T05:05:06.862Z,16.37
2019-02-24T05:07:33.008Z,14.78
2019-02-24T05:10:01.117Z,14.47
2019-02-24T05:12:27.468Z,12.03
2019-02-24T05:14:55.520Z,16.12
2019-02-24T05:17:24.207Z,17.05
2019-02-24T05:19:50.298Z,13.78
2019-02-24T05:22:16.506Z,15.88
2019-02-24T05:24:44.936Z,15.15
2019-02-24T05:27:11.080Z,16.55
2019-02-24T05:29:45.160Z,16.77
2019-02-24T05:32:05.166Z,20.75
2019-02-24T05:34:35.078Z,13.10
2019-02-24T05:37:02.479Z,15.03
2019-02-24T05:39:30.161Z,16.52
2019-02-24T05:41:56.530Z,13.60
2019-02-24T05:44:22.662Z,13.72
2019-02-24T05:46:48.753Z,14.18
2019-02-24T05:49:14.878Z,13.85
2019-02-24T05:51:41.273Z,16.05
2019-02-24T05:54:07.628Z,16.45
2019-02-24T05:56:34.122Z,13.62
2019-02-24T05:59:01.555Z,16.00
2019-02-24T06:01:27.811Z,12.68
2019-02-24T06:03:57.259Z,12.50
2019-02-24T06:06:24.822Z,9.55
2019-02-24T06:08:51.950Z,10.90
2019-02-24T06:11:21.270Z,15.40
2019-02-24T06:13:47.454Z,14.03
2019-02-24T06:16:15.918Z,15.53
2019-02-24T06:18:42.314Z,14.60
2019-02-24T06:21:08.383Z,12.95
2019-02-24T06:23:35.709Z,14.18
2019-02-24T06:26:01.807Z,15.25
2019-02-24T06:28:29.164Z,11.90
2019-02-24T06:30:57.451Z,13.15
2019-02-24T06:33:25.835Z,11.43
2019-02-24T06:35:55.880Z,13.75
2019-02-24T06:38:22.297Z,12.53
2019-02-24T06:40:48.743Z,12.78
2019-02-24T06:43:15.167Z,15.08
2019-02-24T06:45:41.311Z,13.83
2019-02-24T06:48:08.138Z,14.23
2019-02-24T06:50:52.500Z,13.48
2019-02-24T06:53:19.523Z,15.65
2019-02-24T06:55:48.488Z,14.75
2019-02-24T06:58:15.924Z,12.07
2019-02-24T07:00:44.052Z,13.60
2019-02-24T07:03:10.389Z,11.20
2019-02-24T07:05:36.928Z,12.50
2019-02-24T07:08:03.351Z,14.03
2019-02-24T07:10:31.435Z,13.80
2019-02-24T07:12:58.319Z,13.40
2019-02-24T07:15:26.762Z,10.78
2019-02-24T07:17:54.417Z,15.38
2019-02-24T07:20:20.747Z,13.08
2019-02-24T07:22:46.971Z,13.80
2019-02-24T07:25:14.461Z,19.92
2019-02-24T07:27:40.543Z,15.18
2019-02-24T07:30:12.470Z,12.58
2019-02-24T07:32:39.428Z,14.87
2019-02-24T07:35:05.700Z,11.28
2019-02-24T07:37:34.778Z,13.32
2019-02-24T07:40:04.401Z,14.03
2019-02-24T07:42:31.837Z,13.00
2019-02-24T07:44:58.021Z,22.42
2019-02-24T07:47:27.479Z,15.10
2019-02-24T07:49:55.302Z,17.62
2019-02-24T07:52:21.408Z,21.23
2019-02-24T07:54:47.502Z,12.23
2019-02-24T07:57:14.563Z,12.82
2019-02-24T07:59:41.984Z,13.05
2019-02-24T08:02:08.582Z,13.88
2019-02-24T08:04:38.456Z,17.87
2019-02-24T08:07:04.750Z,12.30
2019-02-24T08:09:32.442Z,15.13
2019-02-24T08:11:58.621Z,12.82
2019-02-24T08:14:26.732Z,13.88
2019-02-24T08:16:53.840Z,12.03
2019-02-24T08:19:20.222Z,14.43
2019-02-24T08:21:51.192Z,10.95
2019-02-24T08:24:17.843Z,11.65
2019-02-24T08:26:43.936Z,14.95
2019-02-24T08:29:11.424Z,11.50
2019-02-24T08:31:47.070Z,11.43
2019-02-24T08:34:15.243Z,15.05
2019-02-24T08:36:41.295Z,11.27
2019-02-24T08:39:07.736Z,13.60
2019-02-24T08:41:33.893Z,12.55
2019-02-24T08:44:00.707Z,13.58
2019-02-24T08:46:26.969Z,11.73
2019-02-24T08:48:54.616Z,11.10
2019-02-24T08:51:20.695Z,13.27
2019-02-24T08:53:47.141Z,15.32
2019-02-24T08:56:14.925Z,11.80
2019-02-24T08:58:41.127Z,13.40
2019-02-24T09:01:10.115Z,10.77
2019-02-24T09:03:36.232Z,12.40
2019-02-24T09:06:02.271Z,9.60
2019-02-24T09:08:29.545Z,11.70
2019-02-24T09:10:56.883Z,12.47
2019-02-24T09:13:23.260Z,8.90
2019-02-24T09:15:49.283Z,10.50
2019-02-24T09:18:18.139Z,8.43
2019-02-24T09:20:46.394Z,11.43
2019-02-24T09:23:12.537Z,18.70
2019-02-24T09:25:43.895Z,10.27
2019-02-24T09:28:12.520Z,10.37
2019-02-24T09:30:41.731Z,11.37
2019-02-24T09:33:08.023Z,10.67
2019-02-24T09:35:35.739Z,11.07
2019-02-24T09:38:01.813Z,13.00
2019-02-24T09:40:30.140Z,12.20
2019-02-24T09:42:56.415Z,10.23
2019-02-24T09:45:22.487Z,9.43
2019-02-24T09:47:48.854Z,10.60
2019-02-24T09:50:14.929Z,10.97
2019-02-24T09:52:40.993Z,11.00
2019-02-24T09:55:08.467Z,10.53
2019-02-24T09:57:34.524Z,13.13
2019-02-24T10:00:11.507Z,9.80
2019-02-24T10:02:33.467Z,9.70
2019-02-24T10:05:26.685Z,9.63
2019-02-24T10:07:54.694Z,12.17
2019-02-24T10:10:25.120Z,11.50
2019-02-24T10:12:54.026Z,9.57
2019-02-24T10:15:22.323Z,9.73
2019-02-24T10:17:49.330Z,9.40
2019-02-24T10:20:15.968Z,11.10
2019-02-24T10:22:42.100Z,10.50
2019-02-24T10:25:09.454Z,9.87
2019-02-24T10:27:36.826Z,9.70
2019-02-24T10:30:08.968Z,9.93
2019-02-24T10:32:35.022Z,10.40
2019-02-24T10:35:02.341Z,11.70
2019-02-24T10:37:28.562Z,9.60
2019-02-24T10:39:56.135Z,9.17
2019-02-24T10:42:27.071Z,10.97
2019-02-24T10:44:53.208Z,8.73
2019-02-24T10:47:19.317Z,10.33
2019-02-24T10:49:45.312Z,10.77
2019-02-24T10:52:20.343Z,12.07
2019-02-24T10:54:46.385Z,9.67
2019-02-24T10:57:16.448Z,13.70
2019-02-24T10:59:42.603Z,10.87
2019-02-24T11:02:10.832Z,10.67
2019-02-24T11:04:37.742Z,11.13
2019-02-24T11:07:06.304Z,9.30
2019-02-24T11:09:32.534Z,11.50
2019-02-24T11:11:58.604Z,9.00
2019-02-24T11:14:26.849Z,10.03
2019-02-24T11:16:53.034Z,13.40
2019-02-24T11:19:20.460Z,12.83
2019-02-24T11:21:47.190Z,8.83
2019-02-24T11:24:16.243Z,7.97
2019-02-24T11:26:44.085Z,10.20
2019-02-24T11:29:11.872Z,10.80
2019-02-24T11:31:38.646Z,8.97
2019-02-24T11:34:07.087Z,11.27
2019-02-24T11:36:33.130Z,12.30
2019-02-24T11:39:01.877Z,9.43
2019-02-24T11:41:28.233Z,13.00
2019-02-24T11:43:54.668Z,9.80
2019-02-24T11:46:20.730Z,8.40
2019-02-24T11:48:49.679Z,8.37
2019-02-24T11:51:16.997Z,9.57
2019-02-24T11:53:43.184Z,9.07
2019-02-24T11:56:12.682Z,11.93
2019-02-24T11:58:38.772Z,14.53
2019-02-24T12:01:06.217Z,8.40
2019-02-24T12:03:32.527Z,9.23
2019-02-24T12:05:58.706Z,11.77
2019-02-24T12:08:26.121Z,14.10
2019-02-24T12:10:59.586Z,16.23
2019-02-24T12:13:28.604Z,10.47
2019-02-24T12:15:59.674Z,11.73
2019-02-24T12:18:25.730Z,10.63
2019-02-24T12:20:53.589Z,16.23
2019-02-24T12:23:20.842Z,16.00
2019-02-24T12:25:46.939Z,11.90
2019-02-24T12:28:14.565Z,8.40
2019-02-24T12:30:41.915Z,9.90
2019-02-24T12:33:13.097Z,9.10
2019-02-24T12:35:40.668Z,9.33
2019-02-24T12:38:10.851Z,9.50
2019-02-24T12:40:38.460Z,10.77
2019-02-24T12:43:05.477Z,8.47
2019-02-24T12:45:33.857Z,8.67
2019-02-24T12:48:02.976Z,10.60
2019-02-24T12:50:44.965Z,8.40
2019-02-24T12:53:13.128Z,10.30
2019-02-24T12:55:40.678Z,8.87
2019-02-24T12:58:11.425Z,6.90
2019-02-24T13:00:38.159Z,11.30
2019-02-24T13:03:04.418Z,11.40
2019-02-24T13:05:33.437Z,10.37
2019-02-24T13:07:59.602Z,10.20
2019-02-24T13:10:25.863Z,10.60
2019-02-24T13:12:52.300Z,11.83
2019-02-24T13:15:20.147Z,9.47
2019-02-24T13:17:48.215Z,9.90
2019-02-24T13:20:14.760Z,10.03
2019-02-24T13:22:43.257Z,8.97
2019-02-24T13:25:12.862Z,8.23
2019-02-24T13:27:41.633Z,10.53
2019-02-24T13:30:11.004Z,8.63
2019-02-24T13:32:37.497Z,8.80
2019-02-24T13:35:05.319Z,9.67
2019-02-24T13:37:34.113Z,8.57
2019-02-24T13:40:00.372Z,8.00
2019-02-24T13:42:29.795Z,8.90
2019-02-24T13:44:58.679Z,8.73
2019-02-24T13:47:26.723Z,9.27
2019-02-24T13:50:01.056Z,10.37
2019-02-24T13:52:28.588Z,9.47
2019-02-24T13:54:58.724Z,9.80
2019-02-24T13:57:22.687Z,11.13
2019-02-24T13:59:51.179Z,10.07
2019-02-24T14:02:23.768Z,8.40
2019-02-24T14:04:46.181Z,9.40
2019-02-24T14:07:12.523Z,9.80
2019-02-24T14:09:39.732Z,8.37
2019-02-24T14:12:05.821Z,10.17
2019-02-24T14:14:35.120Z,10.83
2019-02-24T14:17:01.275Z,8.63
2019-02-24T14:19:29.898Z,9.10
2019-02-24T14:21:56.027Z,8.50
2019-02-24T14:24:25.237Z,12.07
2019-02-24T14:26:51.398Z,8.90
2019-02-24T14:29:19.076Z,8.23
2019-02-24T14:31:48.273Z,8.90
2019-02-24T14:34:14.572Z,9.33
2019-02-24T14:36:40.665Z,11.00
2019-02-24T14:39:11.418Z,9.30
2019-02-24T14:41:37.779Z,8.67
2019-02-24T14:44:03.871Z,9.27
2019-02-24T14:46:33.186Z,9.17
2019-02-24T14:48:59.593Z,9.20
2019-02-24T14:51:27.096Z,7.60
2019-02-24T14:53:53.098Z,8.83
2019-02-24T14:56:20.232Z,9.80
2019-02-24T14:58:46.590Z,11.37
2019-02-24T15:01:14.624Z,7.90
2019-02-24T15:03:42.943Z,7.87
2019-02-24T15:06:09.067Z,12.00
2019-02-24T15:08:38.052Z,9.63
2019-02-24T15:11:04.174Z,7.67
2019-02-24T15:13:33.445Z,8.17
2019-02-24T15:16:01.530Z,9.93
2019-02-24T15:18:35.301Z,8.37
2019-02-24T15:21:01.386Z,8.97
2019-02-24T15:23:28.144Z,7.43
2019-02-24T15:25:54.340Z,8.10
2019-02-24T15:28:20.480Z,11.73
2019-02-24T15:30:46.624Z,7.43
2019-02-24T15:33:13.014Z,7.97
2019-02-24T15:35:39.384Z,8.83
2019-02-24T15:38:05.515Z,9.00
2019-02-24T15:40:33.850Z,7.83
2019-02-24T15:43:00.386Z,8.60
2019-02-24T15:45:29.385Z,9.60
2019-02-24T15:47:56.672Z,8.40
2019-02-24T15:50:23.051Z,10.90
2019-02-24T15:52:52.154Z,10.23
2019-02-24T15:55:20.326Z,8.87
2019-02-24T15:57:46.541Z,7.80
2019-02-24T16:00:17.052Z,9.43
2019-02-24T16:02:43.168Z,15.13
2019-02-24T16:05:10.021Z,33.57
2019-02-24T16:07:36.280Z,11.30
2019-02-24T16:10:09.747Z,9.00
2019-02-24T16:12:35.784Z,14.00
2019-02-24T16:15:06.633Z,15.90
2019-02-24T16:17:32.738Z,9.93
2019-02-24T16:19:59.110Z,9.37
2019-02-24T16:22:29.254Z,13.60
2019-02-24T16:24:57.696Z,9.97
2019-02-24T16:27:23.871Z,10.90
2019-02-24T16:29:49.944Z,8.60
2019-02-24T16:32:20.387Z,9.57
2019-02-24T16:34:47.184Z,8.30
2019-02-24T16:37:16.328Z,10.57
2019-02-24T16:39:44.524Z,11.70
2019-02-24T16:42:10.608Z,13.20
2019-02-24T16:44:42.955Z,9.77
2019-02-24T16:47:10.864Z,9.40
2019-02-24T16:49:37.811Z,16.27
2019-02-24T16:52:03.801Z,11.80
2019-02-24T16:54:31.732Z,10.80
2019-02-24T16:57:04.790Z,10.17
2019-02-24T16:59:25.986Z,20.60
2019-02-24T17:01:58.940Z,37.20
2019-02-24T17:04:26.463Z,17.10
2019-02-24T17:06:57.134Z,31.13
2019-02-24T17:09:23.611Z,14.93
2019-02-24T17:11:51.235Z,34.87
2019-02-24T17:14:24.799Z,24.30
2019-02-24T17:16:46.274Z,15.80
2019-02-24T17:19:12.514Z,40.93
2019-02-24T17:21:38.598Z,30.87
2019-02-24T17:24:06.266Z,15.90
2019-02-24T17:26:33.572Z,14.47
2019-02-24T17:29:00.092Z,13.33
2019-02-24T17:31:29.182Z,14.73
2019-02-24T17:33:55.386Z,12.30
2019-02-24T17:36:21.536Z,15.53
2019-02-24T17:38:48.869Z,15.13
2019-02-24T17:41:14.911Z,16.87
2019-02-24T17:43:41.195Z,15.10
2019-02-24T17:46:07.275Z,16.80
2019-02-24T17:48:33.540Z,23.83
2019-02-24T17:51:00.699Z,24.50
2019-02-24T17:53:26.768Z,38.10
2019-02-24T17:55:52.908Z,23.10
2019-02-24T17:58:18.967Z,17.23
2019-02-24T18:00:49.847Z,15.73
2019-02-24T18:03:18.939Z,13.73
2019-02-24T18:05:46.479Z,16.47
2019-02-24T18:08:16.128Z,16.23
2019-02-24T18:10:42.649Z,17.40
2019-02-24T18:13:08.896Z,17.47
2019-02-24T18:15:37.263Z,18.23
2019-02-24T18:18:05.616Z,17.40
2019-02-24T18:20:31.827Z,16.20
2019-02-24T18:22:58.004Z,16.67
2019-02-24T18:25:24.225Z,21.37
2019-02-24T18:27:53.203Z,25.80
2019-02-24T18:30:29.489Z,30.43
2019-02-24T18:32:55.819Z,29.10
2019-02-24T18:35:22.102Z,26.37
2019-02-24T18:37:48.349Z,23.50
2019-02-24T18:40:15.263Z,23.57
2019-02-24T18:42:41.495Z,39.33
2019-02-24T18:45:09.625Z,39.93
2019-02-24T18:47:35.919Z,38.50
2019-02-24T18:50:06.040Z,31.40
2019-02-24T18:52:33.609Z,29.07
2019-02-24T18:55:00.936Z,32.33
2019-02-24T18:57:28.263Z,36.37
2019-02-24T19:00:00.312Z,45.13
2019-02-24T19:02:27.865Z,43.73
2019-02-24T19:04:54.175Z,42.20
2019-02-24T19:07:22.327Z,36.80
2019-02-24T19:09:50.020Z,38.00
2019-02-24T19:12:20.353Z,43.17
2019-02-24T19:14:46.463Z,40.37
2019-02-24T19:17:12.575Z,35.80
2019-02-24T19:19:41.216Z,41.87
2019-02-24T19:22:07.394Z,37.10
2019-02-24T19:24:37.316Z,41.97
2019-02-24T19:27:04.500Z,51.63
2019-02-24T19:29:32.012Z,34.80
2019-02-24T19:31:58.246Z,34.77
2019-02-24T19:34:25.971Z,33.77
2019-02-24T19:36:52.140Z,36.93
2019-02-24T19:39:18.262Z,28.57
2019-02-24T19:41:45.884Z,36.80
2019-02-24T19:44:13.069Z,28.50
2019-02-24T19:46:42.273Z,28.53
2019-02-24T19:49:08.427Z,32.10
2019-02-24T19:51:41.861Z,40.63
2019-02-24T19:54:07.923Z,26.23
2019-02-24T19:56:34.100Z,23.13
2019-02-24T19:59:01.623Z,24.60
2019-02-24T20:01:29.838Z,25.03
2019-02-24T20:04:00.671Z,20.90
2019-02-24T20:06:27.043Z,23.97
2019-02-24T20:08:53.304Z,25.03
2019-02-24T20:11:20.595Z,24.47
2019-02-24T20:13:48.797Z,26.33
2019-02-24T20:16:16.341Z,23.10
2019-02-24T20:18:42.552Z,23.10
2019-02-24T20:21:08.719Z,18.20
2019-02-24T20:23:37.109Z,23.10
2019-02-24T20:26:03.382Z,21.50
2019-02-24T20:28:29.422Z,24.77
2019-02-24T20:30:55.756Z,20.40
2019-02-24T20:33:22.070Z,20.50
2019-02-24T20:35:48.548Z,21.00
2019-02-24T20:38:14.504Z,21.73
2019-02-24T20:40:40.731Z,22.63
2019-02-24T20:43:06.778Z,24.27
2019-02-24T20:45:35.274Z,25.73
2019-02-24T20:48:01.767Z,27.33
2019-02-24T20:50:30.789Z,26.40
2019-02-24T20:52:56.895Z,25.47
2019-02-24T20:55:23.188Z,21.67
2019-02-24T20:57:49.432Z,25.70
2019-02-24T21:00:20.410Z,25.10
2019-02-24T21:02:46.577Z,23.53
2019-02-24T21:05:13.199Z,27.97
2019-02-24T21:07:39.242Z,26.73
2019-02-24T21:10:08.671Z,24.27
2019-02-24T21:12:34.736Z,22.23
2019-02-24T21:15:00.921Z,21.33
2019-02-24T21:17:27.042Z,24.77
2019-02-24T21:19:53.301Z,23.13
2019-02-24T21:22:19.331Z,26.40
2019-02-24T21:24:46.138Z,21.90
2019-02-24T21:27:12.338Z,27.40
2019-02-24T21:29:38.454Z,30.27
2019-02-24T21:32:04.656Z,27.93
2019-02-24T21:34:30.769Z,25.83
2019-02-24T21:36:56.865Z,27.00
2019-02-24T21:39:24.334Z,28.27
2019-02-24T21:41:50.525Z,27.47
2019-02-24T21:44:17.843Z,28.60
2019-02-24T21:46:46.582Z,30.73
2019-02-24T21:49:12.747Z,24.43
2019-02-24T21:51:38.855Z,21.77
2019-02-24T21:54:04.944Z,29.33
2019-02-24T21:56:31.041Z,29.30
2019-02-24T21:59:00.949Z,27.13
2019-02-24T22:01:30.703Z,27.43
2019-02-24T22:03:59.590Z,29.97
2019-02-24T22:06:29.224Z,27.23
2019-02-24T22:08:55.518Z,24.13
2019-02-24T22:11:21.616Z,22.00
2019-02-24T22:13:47.675Z,30.33
2019-02-24T22:16:13.814Z,22.20
2019-02-24T22:18:40.006Z,28.37
2019-02-24T22:21:07.734Z,29.70
2019-02-24T22:23:33.924Z,23.43
2019-02-24T22:26:01.385Z,24.93
2019-02-24T22:28:27.461Z,29.40
2019-02-24T22:30:53.588Z,26.10
2019-02-24T22:33:19.691Z,26.53
2019-02-24T22:35:46.108Z,24.03
2019-02-24T22:38:12.232Z,23.90
2019-02-24T22:40:38.570Z,28.10
2019-02-24T22:43:04.634Z,25.73
2019-02-24T22:45:31.005Z,27.63
2019-02-24T22:47:57.096Z,31.40
2019-02-24T22:50:23.320Z,29.33
2019-02-24T22:52:49.437Z,32.70
2019-02-24T22:55:17.190Z,27.10
2019-02-24T22:57:43.659Z,27.97
2019-02-24T23:00:51.671Z,29.77
2019-02-24T23:03:18.263Z,30.77
2019-02-24T23:05:44.415Z,26.93
2019-02-24T23:08:10.827Z,25.27
2019-02-24T23:10:37.063Z,36.63
2019-02-24T23:13:03.834Z,33.83
2019-02-24T23:15:31.909Z,26.83
2019-02-24T23:17:58.009Z,27.20
2019-02-24T23:20:24.057Z,24.53
2019-02-24T23:22:50.128Z,31.53
2019-02-24T23:25:16.207Z,29.70
2019-02-24T23:27:43.723Z,28.93
2019-02-24T23:30:09.992Z,27.90
2019-02-24T23:32:36.136Z,28.00
2019-02-24T23:35:08.328Z,27.00
2019-02-24T23:37:34.229Z,28.20
2019-02-24T23:40:00.516Z,29.37
2019-02-24T23:42:28.423Z,26.07
2019-02-24T23:44:54.509Z,22.50
2019-02-24T23:47:21.763Z,29.73
2019-02-24T23:49:48.188Z,25.00
2019-02-24T23:52:15.941Z,25.47
2019-02-24T23:54:44.952Z,30.40
2019-02-24T23:57:12.272Z,33.93
2019-02-24T23:59:39.501Z,29.07
